createdAt,value
2023-02-15T00:00:30.406Z,1.40
2023-02-15T00:02:58.852Z,1.20
2023-02-15T00:05:27.308Z,1.40
2023-02-15T00:07:55.662Z,1.17
2023-02-15T00:10:25.041Z,1.17
2023-02-15T00:12:53.532Z,0.60
2023-02-15T00:15:23.334Z,0.80
2023-02-15T00:17:51.903Z,0.50
2023-02-15T00:20:20.615Z,0.50
2023-02-15T00:22:49.069Z,0.80
2023-02-15T00:25:17.538Z,0.80
2023-02-15T00:27:46.071Z,0.65
2023-02-15T00:30:14.863Z,0.70
2023-02-15T00:32:44.862Z,0.40
2023-02-15T00:35:13.319Z,0.40
2023-02-15T00:37:41.660Z,0.40
2023-02-15T00:40:11.056Z,0.50
2023-02-15T00:42:39.586Z,0.50
2023-02-15T00:45:08.896Z,0.40
2023-02-15T00:47:37.286Z,0.57
2023-02-15T00:50:08.947Z,0.22
2023-02-15T00:52:37.586Z,0.30
2023-02-15T00:55:06.362Z,0.30
2023-02-15T00:57:34.706Z,1.88
2023-02-15T01:00:03.057Z,0.43
2023-02-15T01:02:31.508Z,0.40
2023-02-15T01:05:00.100Z,0.20
2023-02-15T01:07:29.965Z,0.40
2023-02-15T01:09:58.259Z,0.30
2023-02-15T01:12:26.719Z,0.60
2023-02-15T01:14:55.440Z,0.50
2023-02-15T01:17:23.944Z,0.50
2023-02-15T01:19:52.672Z,0.60
2023-02-15T01:22:21.532Z,0.60
2023-02-15T01:24:52.797Z,0.52
2023-02-15T01:27:21.253Z,0.63
2023-02-15T01:29:49.688Z,0.50
2023-02-15T01:32:18.145Z,0.57
2023-02-15T01:34:46.442Z,0.55
2023-02-15T01:37:15.220Z,0.47
2023-02-15T01:39:43.579Z,0.50
2023-02-15T01:42:14.283Z,0.50
2023-02-15T01:44:51.930Z,0.60
2023-02-15T01:47:24.534Z,0.65
2023-02-15T01:50:04.206Z,0.70
2023-02-15T01:52:33.372Z,0.60
2023-02-15T01:55:03.606Z,0.60
2023-02-15T01:57:33.547Z,0.52
2023-02-15T02:00:04.600Z,0.70
2023-02-15T02:02:33.574Z,0.80
2023-02-15T02:05:07.758Z,0.60
2023-02-15T02:07:40.469Z,0.70
2023-02-15T02:10:10.492Z,0.70
2023-02-15T02:12:42.440Z,0.80
2023-02-15T02:15:11.611Z,0.90
2023-02-15T02:17:51.644Z,1.10
2023-02-15T02:20:43.522Z,0.80
2023-02-15T02:23:25.110Z,0.95
2023-02-15T02:26:29.569Z,0.95
2023-02-15T02:29:38.044Z,1.15
2023-02-15T02:32:50.824Z,1.00
2023-02-15T02:35:25.284Z,1.00
2023-02-15T02:38:02.791Z,0.90
2023-02-15T02:40:41.629Z,0.85
2023-02-15T02:43:16.670Z,0.90
2023-02-15T02:45:52.604Z,1.40
2023-02-15T02:48:24.823Z,0.73
2023-02-15T02:50:55.157Z,1.10
2023-02-15T02:53:23.644Z,1.20
2023-02-15T02:55:56.629Z,1.10
2023-02-15T02:58:29.035Z,1.17
2023-02-15T03:00:59.809Z,1.00
2023-02-15T03:03:32.267Z,1.05
2023-02-15T03:06:05.433Z,1.30
2023-02-15T03:08:38.527Z,1.20
2023-02-15T03:11:07.619Z,1.20
2023-02-15T03:13:37.362Z,1.30
2023-02-15T03:16:33.545Z,1.05
2023-02-15T03:19:06.998Z,1.23
2023-02-15T03:21:42.441Z,1.20
2023-02-15T03:24:16.446Z,0.93
2023-02-15T03:26:48.339Z,1.15
2023-02-15T03:29:19.458Z,1.27
2023-02-15T03:31:51.936Z,1.00
2023-02-15T03:34:20.875Z,1.13
2023-02-15T03:36:57.325Z,1.23
2023-02-15T03:39:32.432Z,0.93
2023-02-15T03:42:09.737Z,1.05
2023-02-15T03:44:45.782Z,1.10
2023-02-15T03:47:18.092Z,1.02
2023-02-15T03:49:53.847Z,1.20
2023-02-15T03:52:25.721Z,1.20
2023-02-15T03:54:54.536Z,1.30
2023-02-15T03:57:42.138Z,1.00
2023-02-15T04:00:33.752Z,1.00
2023-02-15T04:03:12.365Z,1.15
2023-02-15T04:05:41.366Z,0.90
2023-02-15T04:08:11.801Z,2.38
2023-02-15T04:10:54.523Z,2.13
2023-02-15T04:13:24.094Z,1.90
2023-02-15T04:16:07.842Z,1.38
2023-02-15T04:18:55.164Z,1.48
2023-02-15T04:21:42.161Z,1.15
2023-02-15T04:24:29.917Z,1.38
2023-02-15T04:26:58.393Z,1.27
2023-02-15T04:29:28.508Z,1.70
2023-02-15T04:31:59.132Z,1.85
2023-02-15T04:34:27.826Z,1.58
2023-02-15T04:36:56.255Z,1.20
2023-02-15T04:39:26.088Z,1.27
2023-02-15T04:41:54.560Z,1.20
2023-02-15T04:44:22.896Z,1.30
2023-02-15T04:46:51.394Z,1.33
2023-02-15T04:49:19.733Z,2.10
2023-02-15T04:51:48.086Z,2.10
2023-02-15T04:54:16.476Z,1.88
2023-02-15T04:56:46.494Z,1.90
2023-02-15T04:59:15.308Z,2.58
2023-02-15T05:01:44.254Z,2.13
2023-02-15T05:04:13.102Z,1.15
2023-02-15T05:06:41.712Z,1.80
2023-02-15T05:09:10.348Z,1.17
2023-02-15T05:11:38.735Z,1.30
2023-02-15T05:14:08.565Z,1.27
2023-02-15T05:16:37.284Z,1.00
2023-02-15T05:19:05.709Z,1.00
2023-02-15T05:21:34.777Z,1.40
2023-02-15T05:24:23.442Z,1.70
2023-02-15T05:27:14.284Z,0.90
2023-02-15T05:29:44.147Z,0.98
2023-02-15T05:32:15.330Z,2.22
2023-02-15T05:34:43.836Z,1.52
2023-02-15T05:37:12.139Z,2.75
2023-02-15T05:39:40.421Z,1.92
2023-02-15T05:42:08.783Z,1.10
2023-02-15T05:44:37.153Z,1.05
2023-02-15T05:47:08.326Z,1.27
2023-02-15T05:49:37.193Z,1.10
2023-02-15T05:52:05.887Z,1.13
2023-02-15T05:54:34.341Z,0.85
2023-02-15T05:57:02.703Z,1.40
2023-02-15T05:59:31.045Z,2.30
2023-02-15T06:01:59.430Z,2.13
2023-02-15T06:04:29.464Z,2.67
2023-02-15T06:06:58.129Z,4.80
2023-02-15T06:09:26.770Z,5.22
2023-02-15T06:11:55.231Z,4.32
2023-02-15T06:14:24.129Z,3.72
2023-02-15T06:16:52.637Z,2.78
2023-02-15T06:19:22.172Z,3.92
2023-02-15T06:21:52.435Z,3.40
2023-02-15T06:24:20.899Z,3.38
2023-02-15T06:26:49.224Z,3.22
2023-02-15T06:29:17.626Z,3.40
2023-02-15T06:31:46.224Z,2.70
2023-02-15T06:34:14.634Z,2.42
2023-02-15T06:36:43.085Z,2.40
2023-02-15T06:39:12.816Z,2.10
2023-02-15T06:41:41.712Z,2.63
2023-02-15T06:44:10.267Z,2.90
2023-02-15T06:46:38.610Z,7.22
2023-02-15T06:49:06.981Z,4.45
2023-02-15T06:51:35.909Z,2.13
2023-02-15T06:54:04.472Z,2.33
2023-02-15T06:56:34.296Z,5.30
2023-02-15T06:59:02.804Z,2.30
2023-02-15T07:01:31.171Z,1.90
2023-02-15T07:03:59.464Z,2.15
2023-02-15T07:06:28.241Z,2.10
2023-02-15T07:08:56.549Z,1.58
2023-02-15T07:11:42.170Z,1.27
2023-02-15T07:14:12.145Z,1.40
2023-02-15T07:16:40.742Z,1.80
2023-02-15T07:19:09.499Z,3.70
2023-02-15T07:21:38.535Z,3.63
2023-02-15T07:24:07.076Z,2.97
2023-02-15T07:26:35.551Z,5.13
2023-02-15T07:29:03.845Z,5.95
2023-02-15T07:31:33.677Z,6.32
2023-02-15T07:34:02.294Z,6.50
2023-02-15T07:36:30.725Z,5.53
2023-02-15T07:38:59.093Z,4.95
2023-02-15T07:41:27.453Z,4.28
2023-02-15T07:43:55.791Z,4.43
2023-02-15T07:46:24.255Z,4.35
2023-02-15T07:48:54.171Z,5.95
2023-02-15T07:51:22.672Z,7.85
2023-02-15T07:53:52.605Z,7.78
2023-02-15T07:56:21.104Z,6.88
2023-02-15T07:58:56.909Z,6.72
2023-02-15T08:01:27.229Z,6.32
2023-02-15T08:03:58.827Z,6.05
2023-02-15T08:06:29.421Z,10.43
2023-02-15T08:08:58.681Z,8.82
2023-02-15T08:11:30.327Z,10.68
2023-02-15T08:14:01.125Z,6.15
2023-02-15T08:16:31.657Z,6.70
2023-02-15T08:19:03.476Z,11.02
2023-02-15T08:21:32.528Z,14.68
2023-02-15T08:24:01.295Z,11.25
2023-02-15T08:26:31.014Z,2.50
2023-02-15T08:29:00.044Z,1.42
2023-02-15T08:31:29.538Z,1.10
2023-02-15T08:33:58.826Z,2.95
2023-02-15T08:36:32.713Z,0.90
2023-02-15T08:39:02.216Z,0.75
2023-02-15T08:41:32.568Z,4.68
2023-02-15T08:44:02.618Z,5.25
2023-02-15T08:46:33.148Z,3.30
2023-02-15T08:49:02.040Z,0.82
2023-02-15T08:51:34.075Z,1.83
2023-02-15T08:54:05.824Z,2.25
2023-02-15T08:56:36.934Z,2.42
2023-02-15T08:59:06.668Z,1.58
2023-02-15T09:01:37.470Z,1.45
2023-02-15T09:04:09.848Z,2.00
2023-02-15T09:06:41.080Z,0.77
2023-02-15T09:09:10.399Z,1.77
2023-02-15T09:11:41.185Z,1.20
2023-02-15T09:14:11.411Z,1.33
2023-02-15T09:16:40.508Z,0.90
2023-02-15T09:19:09.668Z,0.73
2023-02-15T09:21:40.823Z,1.20
2023-02-15T09:24:11.490Z,0.82
2023-02-15T09:26:42.061Z,1.00
2023-02-15T09:29:11.757Z,1.00
2023-02-15T09:31:42.467Z,1.45
2023-02-15T09:34:11.022Z,2.08
2023-02-15T09:36:42.260Z,1.08
2023-02-15T09:39:12.774Z,1.02
2023-02-15T09:42:25.435Z,1.10
2023-02-15T09:45:18.482Z,1.30
2023-02-15T09:48:10.470Z,1.23
2023-02-15T09:50:48.307Z,2.30
2023-02-15T09:53:33.297Z,1.10
2023-02-15T09:56:09.754Z,1.42
2023-02-15T09:58:48.831Z,1.25
2023-02-15T10:01:26.961Z,1.52
2023-02-15T10:04:14.068Z,0.80
2023-02-15T10:06:46.561Z,1.20
2023-02-15T10:09:39.222Z,0.80
2023-02-15T10:12:26.766Z,0.88
2023-02-15T10:15:21.649Z,0.80
2023-02-15T10:18:08.152Z,0.98
2023-02-15T10:20:47.274Z,1.00
2023-02-15T10:23:40.881Z,0.70
2023-02-15T10:26:18.975Z,1.20
2023-02-15T10:28:51.069Z,1.10
2023-02-15T10:31:34.301Z,0.70
2023-02-15T10:34:15.241Z,0.90
2023-02-15T10:37:01.829Z,0.90
2023-02-15T10:39:41.081Z,1.02
2023-02-15T10:42:18.678Z,1.20
2023-02-15T10:45:02.881Z,0.80
2023-02-15T10:47:51.550Z,1.73
2023-02-15T10:50:32.200Z,1.40
2023-02-15T10:53:19.636Z,1.63
2023-02-15T10:55:58.094Z,1.20
2023-02-15T10:58:41.117Z,1.30
2023-02-15T11:01:21.069Z,1.30
2023-02-15T11:04:12.536Z,1.42
2023-02-15T11:06:49.424Z,1.50
2023-02-15T11:09:21.797Z,1.60
2023-02-15T11:11:53.979Z,1.35
2023-02-15T11:14:34.160Z,1.20
2023-02-15T11:17:09.395Z,10.45
2023-02-15T11:19:44.389Z,1.25
2023-02-15T11:22:13.894Z,1.20
2023-02-15T11:24:45.708Z,1.27
2023-02-15T11:27:21.955Z,1.10
2023-02-15T11:29:59.682Z,1.27
2023-02-15T11:32:32.515Z,0.95
2023-02-15T11:35:06.682Z,1.27
2023-02-15T11:37:40.623Z,0.90
2023-02-15T11:40:21.524Z,1.00
2023-02-15T11:42:51.753Z,0.90
2023-02-15T11:45:28.799Z,1.00
2023-02-15T11:47:57.397Z,0.85
2023-02-15T11:50:28.254Z,0.80
2023-02-15T11:53:02.682Z,0.70
2023-02-15T11:55:31.524Z,0.75
2023-02-15T11:58:05.336Z,0.70
2023-02-15T12:00:40.263Z,0.60
2023-02-15T12:03:16.782Z,0.50
2023-02-15T12:05:50.202Z,0.80
2023-02-15T12:08:22.114Z,0.75
2023-02-15T12:11:01.476Z,0.98
2023-02-15T12:13:31.236Z,0.57
2023-02-15T12:16:09.321Z,0.63
2023-02-15T12:18:41.479Z,0.80
2023-02-15T12:21:14.618Z,0.70
2023-02-15T12:23:49.714Z,0.85
2023-02-15T12:26:26.491Z,0.90
2023-02-15T12:28:59.326Z,1.05
2023-02-15T12:31:35.685Z,1.03
2023-02-15T12:34:11.997Z,1.38
2023-02-15T12:36:47.544Z,0.93
2023-02-15T12:39:26.761Z,1.25
2023-02-15T12:42:05.090Z,0.80
2023-02-15T12:44:35.324Z,2.03
2023-02-15T12:47:08.592Z,2.10
2023-02-15T12:49:38.261Z,1.00
2023-02-15T12:52:09.141Z,1.02
2023-02-15T12:54:41.298Z,1.10
2023-02-15T12:57:23.701Z,0.77
2023-02-15T12:59:53.949Z,1.15
2023-02-15T13:02:31.678Z,1.40
2023-02-15T13:05:10.227Z,0.93
2023-02-15T13:07:40.096Z,1.00
2023-02-15T13:10:24.093Z,1.10
2023-02-15T13:15:33.343Z,0.80
2023-02-15T13:18:05.182Z,0.98
2023-02-15T13:20:37.619Z,1.02
2023-02-15T13:23:09.510Z,0.80
2023-02-15T13:25:51.318Z,1.00
2023-02-15T13:28:25.086Z,1.10
2023-02-15T13:30:53.978Z,0.90
2023-02-15T13:33:29.128Z,1.00
2023-02-15T13:36:09.172Z,1.15
2023-02-15T13:38:51.600Z,0.80
2023-02-15T13:41:25.831Z,0.95
2023-02-15T13:44:01.882Z,1.10
2023-02-15T13:46:51.792Z,1.30
2023-02-15T13:49:36.281Z,1.35
2023-02-15T13:52:16.489Z,1.05
2023-02-15T13:55:13.583Z,1.35
2023-02-15T13:58:19.823Z,1.40
2023-02-15T14:00:55.340Z,1.23
2023-02-15T14:04:03.383Z,1.20
2023-02-15T14:06:58.715Z,1.38
2023-02-15T14:09:42.595Z,1.40
2023-02-15T14:12:28.984Z,1.33
2023-02-15T14:15:28.395Z,1.30
2023-02-15T14:18:11.840Z,1.50
2023-02-15T14:20:52.054Z,1.73
2023-02-15T14:23:37.279Z,1.60
2023-02-15T14:26:12.553Z,1.55
2023-02-15T14:28:49.054Z,1.50
2023-02-15T14:31:21.833Z,1.33
2023-02-15T14:33:56.986Z,1.40
2023-02-15T14:36:27.191Z,1.40
2023-02-15T14:39:06.704Z,1.40
2023-02-15T14:41:41.503Z,1.48
2023-02-15T14:44:18.356Z,1.20
2023-02-15T14:46:52.954Z,1.50
2023-02-15T14:49:25.368Z,1.70
2023-02-15T14:52:02.682Z,1.60
2023-02-15T14:54:58.655Z,1.33
2023-02-15T14:57:35.720Z,1.50
2023-02-15T15:00:23.543Z,1.20
2023-02-15T15:02:55.707Z,1.33
2023-02-15T15:05:32.167Z,1.50
2023-02-15T15:08:02.325Z,2.40
2023-02-15T15:10:42.801Z,1.30
2023-02-15T15:13:43.426Z,1.20
2023-02-15T15:16:33.964Z,1.52
2023-02-15T15:19:03.865Z,1.50
2023-02-15T15:21:54.589Z,1.30
2023-02-15T15:24:50.635Z,1.60
2023-02-15T15:27:44.368Z,1.10
2023-02-15T15:31:01.178Z,1.50
2023-02-15T15:34:05.538Z,2.58
2023-02-15T15:36:53.818Z,1.90
2023-02-15T15:40:01.644Z,1.45
2023-02-15T15:42:45.691Z,1.45
2023-02-15T15:48:07.953Z,3.88
2023-02-15T15:50:37.087Z,2.47
2023-02-15T15:53:07.461Z,2.88
2023-02-15T15:55:36.854Z,2.42
2023-02-15T15:58:08.336Z,1.48
2023-02-15T16:00:43.297Z,1.77
2023-02-15T16:03:17.182Z,1.85
2023-02-15T16:05:45.691Z,2.33
2023-02-15T16:08:14.008Z,2.20
2023-02-15T16:10:43.459Z,2.00
2023-02-15T16:13:17.219Z,1.52
2023-02-15T16:18:21.122Z,9.48
2023-02-15T16:20:54.426Z,3.30
2023-02-15T16:23:52.756Z,4.22
2023-02-15T16:26:39.002Z,4.05
2023-02-15T16:29:17.182Z,4.53
2023-02-15T16:32:02.854Z,14.88
2023-02-15T16:34:33.696Z,9.80
2023-02-15T16:37:18.596Z,10.40
2023-02-15T16:39:49.373Z,2.90
2023-02-15T16:42:20.832Z,4.70
2023-02-15T16:44:53.406Z,2.05
2023-02-15T16:47:27.512Z,3.47
2023-02-15T16:50:00.457Z,4.10
2023-02-15T16:52:30.614Z,3.65
2023-02-15T16:55:01.876Z,3.65
2023-02-15T16:57:35.186Z,3.03
2023-02-15T17:00:06.446Z,2.80
2023-02-15T17:02:55.194Z,2.70
2023-02-15T17:05:25.280Z,2.08
2023-02-15T17:08:08.354Z,2.38
2023-02-15T17:10:40.025Z,3.10
2023-02-15T17:13:13.162Z,5.60
2023-02-15T17:15:43.394Z,9.55
2023-02-15T17:18:19.253Z,6.55
2023-02-15T17:20:49.788Z,6.32
2023-02-15T17:23:27.897Z,5.47
2023-02-15T17:25:57.233Z,2.83
2023-02-15T17:28:28.246Z,3.80
2023-02-15T17:30:58.819Z,3.72
2023-02-15T17:33:40.523Z,3.80
2023-02-15T17:36:13.326Z,3.60
2023-02-15T17:38:43.693Z,3.20
2023-02-15T17:41:11.930Z,3.10
2023-02-15T17:43:42.527Z,2.90
2023-02-15T17:46:12.318Z,5.10
2023-02-15T17:48:43.558Z,5.43
2023-02-15T17:51:15.420Z,4.78
2023-02-15T17:54:04.827Z,6.15
2023-02-15T17:56:32.424Z,5.95
2023-02-15T17:59:00.730Z,4.20
2023-02-15T18:01:46.447Z,6.38
2023-02-15T18:04:34.472Z,5.05
2023-02-15T18:07:19.906Z,6.07
2023-02-15T18:10:05.407Z,6.45
2023-02-15T18:12:36.779Z,5.53
2023-02-15T18:15:06.183Z,4.65
2023-02-15T18:17:36.316Z,5.35
2023-02-15T18:20:12.622Z,3.72
2023-02-15T18:22:41.143Z,5.25
2023-02-15T18:25:14.494Z,5.65
2023-02-15T18:27:42.797Z,7.22
2023-02-15T18:30:16.283Z,6.43
2023-02-15T18:32:46.085Z,6.53
2023-02-15T18:35:19.164Z,7.03
2023-02-15T18:37:48.294Z,6.07
2023-02-15T18:40:17.924Z,5.90
2023-02-15T18:42:48.139Z,7.03
2023-02-15T18:45:19.659Z,7.35
2023-02-15T18:47:49.346Z,8.98
2023-02-15T18:50:21.180Z,9.13
2023-02-15T18:52:51.686Z,7.78
2023-02-15T18:55:22.818Z,6.82
2023-02-15T18:57:53.202Z,14.95
2023-02-15T19:00:25.292Z,13.15
2023-02-15T19:02:54.633Z,8.23
2023-02-15T19:05:25.245Z,5.28
2023-02-15T19:07:53.746Z,5.35
2023-02-15T19:10:24.033Z,4.07
2023-02-15T19:12:52.771Z,4.18
2023-02-15T19:15:22.917Z,4.25
2023-02-15T19:17:52.147Z,4.75
2023-02-15T19:20:23.130Z,5.93
2023-02-15T19:22:55.376Z,3.45
2023-02-15T19:25:26.379Z,4.65
2023-02-15T19:27:56.032Z,4.78
2023-02-15T19:30:29.925Z,4.35
2023-02-15T19:32:59.042Z,5.03
2023-02-15T19:35:31.734Z,4.90
2023-02-15T19:38:03.722Z,4.55
2023-02-15T19:40:35.090Z,4.70
2023-02-15T19:43:04.576Z,4.90
2023-02-15T19:45:33.807Z,5.18
2023-02-15T19:48:02.905Z,5.53
2023-02-15T19:50:33.059Z,5.97
2023-02-15T19:53:03.765Z,6.05
2023-02-15T19:55:34.253Z,7.13
2023-02-15T19:58:04.346Z,7.38
2023-02-15T20:00:35.384Z,7.65
2023-02-15T20:03:03.712Z,8.07
2023-02-15T20:05:34.340Z,7.47
2023-02-15T20:08:08.496Z,7.15
2023-02-15T20:10:37.815Z,7.57
2023-02-15T20:13:06.248Z,8.80
2023-02-15T20:15:36.574Z,7.97
2023-02-15T20:18:06.957Z,8.27
2023-02-15T20:20:41.186Z,8.10
2023-02-15T20:23:19.496Z,8.13
2023-02-15T20:25:47.853Z,8.35
2023-02-15T20:28:21.344Z,8.35
2023-02-15T20:30:50.258Z,7.18
2023-02-15T20:33:20.346Z,7.97
2023-02-15T20:35:49.738Z,8.43
2023-02-15T20:38:23.268Z,8.55
2023-02-15T20:41:09.387Z,8.20
2023-02-15T20:43:37.962Z,8.60
2023-02-15T20:46:07.265Z,8.75
2023-02-15T20:48:36.359Z,8.68
2023-02-15T20:51:05.382Z,11.40
2023-02-15T20:53:35.642Z,8.60
2023-02-15T20:56:04.308Z,9.27
2023-02-15T20:58:32.934Z,9.18
2023-02-15T21:01:01.567Z,8.73
2023-02-15T21:03:31.652Z,8.35
2023-02-15T21:06:00.653Z,8.07
2023-02-15T21:08:29.148Z,8.82
2023-02-15T21:11:00.740Z,8.48
2023-02-15T21:13:33.709Z,8.25
2023-02-15T21:16:02.900Z,7.88
2023-02-15T21:18:34.397Z,9.18
2023-02-15T21:21:06.223Z,8.48
2023-02-15T21:23:36.829Z,8.55
2023-02-15T21:26:07.717Z,7.70
2023-02-15T21:28:35.992Z,7.80
2023-02-15T21:31:04.834Z,7.45
2023-02-15T21:33:33.464Z,8.02
2023-02-15T21:36:01.855Z,7.85
2023-02-15T21:38:31.745Z,7.93
2023-02-15T21:41:20.536Z,7.15
2023-02-15T21:44:07.387Z,8.32
2023-02-15T21:46:53.559Z,8.10
2023-02-15T21:49:21.967Z,8.90
2023-02-15T21:52:09.613Z,8.95
2023-02-15T21:54:38.119Z,7.85
2023-02-15T21:57:06.704Z,8.43
2023-02-15T21:59:36.472Z,8.70
2023-02-15T22:02:05.079Z,8.48
2023-02-15T22:04:34.278Z,9.18
2023-02-15T22:07:03.826Z,8.63
2023-02-15T22:09:32.619Z,8.88
2023-02-15T22:12:02.241Z,9.25
2023-02-15T22:14:40.254Z,9.82
2023-02-15T22:17:17.572Z,9.23
2023-02-15T22:19:48.217Z,9.50
2023-02-15T22:22:17.552Z,9.18
2023-02-15T22:24:46.572Z,8.90
2023-02-15T22:27:21.609Z,9.55
2023-02-15T22:29:53.491Z,10.50
2023-02-15T22:32:25.927Z,9.15
2023-02-15T22:34:55.239Z,9.23
2023-02-15T22:37:23.554Z,9.45
2023-02-15T22:39:52.157Z,10.13
2023-02-15T22:42:27.770Z,10.65
2023-02-15T22:44:59.388Z,11.45
2023-02-15T22:47:32.803Z,10.95
2023-02-15T22:50:02.086Z,11.43
2023-02-15T22:52:30.866Z,11.00
2023-02-15T22:54:59.118Z,10.63
2023-02-15T22:57:32.226Z,10.70
2023-02-15T23:00:02.595Z,11.15
2023-02-15T23:02:30.971Z,10.38
2023-02-15T23:04:59.526Z,11.63
2023-02-15T23:07:29.404Z,10.85
2023-02-15T23:09:59.135Z,10.40
2023-02-15T23:12:50.158Z,10.20
2023-02-15T23:15:20.204Z,11.45
2023-02-15T23:17:48.502Z,11.80
2023-02-15T23:20:17.291Z,11.35
2023-02-15T23:22:45.939Z,11.57
2023-02-15T23:25:15.656Z,11.23
2023-02-15T23:27:59.738Z,11.77
2023-02-15T23:30:29.815Z,11.20
2023-02-15T23:32:59.426Z,11.52
2023-02-15T23:35:28.931Z,11.73
2023-02-15T23:37:57.308Z,11.60
2023-02-15T23:40:43.038Z,12.93
2023-02-15T23:43:18.923Z,11.52
2023-02-15T23:45:49.036Z,11.38
2023-02-15T23:48:32.074Z,12.45
2023-02-15T23:51:01.100Z,12.60
2023-02-15T23:53:29.647Z,12.65
2023-02-15T23:55:58.750Z,12.40
2023-02-15T23:58:35.741Z,11.68
